메인 페이지
METAR-TAF:

METAR-TAF

공항 :

튀니스 카르타고 국제공항

튀니스, 튀니지

위도: 36-50N, 경도: 010-14E, 고도: 3m

현재 날씨관측

예보는 14분 전, 23:00시(UTC)에 발표되었습니다.
북북동3kt
온도 16°C
습도 82%
기압 1011 hPa
시정 10km 이상
고도 3000ft 상공 구름 조금

METAR: DTTA 232300Z 02003KT 9999 FEW030 16/13 Q1011

시각: 00:14 (23:14 UTC)

예보

예보는 6 시간 14분 전, 17:00시(UTC)에 발표되었습니다.
예보 대상 시간: 23일 18시부터 24일 18시까지 (UTC)
12kt
시정 10km 이상
고도 3000ft 상공 구름 조금
전환 중
23일 19시부터 23일 21시까지 (UTC)
서북서5kt
전환 중
24일 00시부터 24일 02시까지 (UTC)
여러 방향의 바람 3kt
시정: 5000m
고도 1600ft 상공 구름 조금
전환 중
24일 06시부터 24일 08시까지 (UTC)
15kt
시정 10km 이상
고도 2600ft 상공 구름 보통

TAF: DTTA 231700Z 2318/2418 36012KT 9999 FEW030 BECMG 2319/2321 30005KT BECMG 2400/2402 VRB03KT 5000 FEW016 BECMG 2406/2408 36015KT 9999 SCT026

4,000개 이상의 공항 관측 자료 및 예보 (METAR 및 TAF 보고).

지도상에서 검색 가능한 기상관측소가 노란 점과 빨간 점으로 표시되어 있습니다.

기상관측소 명을 보려면 표시 위로 마우스를 이동하세요.

날씨 관측과 예보를 보려면 클릭하세요.

지도 변경 : 확대하려면 엑스 표시가 있는 녹색 버튼, 축소하려면 빼기 표시가 있는 녹색 버튼, 다음 페이지의 지도를 보려면 녹색 화살표를 클릭하세요.


METAR-TAF: